Time;durP1;ratioP1;P1;durP2;ratioP2;P2;SDS_P1;SDS_P2;PMS_P1;PMS_P2;Temp;Humidity;BMP_temperature;BMP_pressure;BME280_temperature;BME280_humidity;BME280_pressure;Samples;Min_cycle;Max_cycle;Signal;HPM_P1;HPM_P2
2022/06/10 00:00:49;;;;;;;1.23;0.40;;;;;;;;;;6247496;28;20107;-73
2022/06/10 00:03:51;;;;;;;3.50;0.35;;;;;;;;;;6252744;28;20344;-73
2022/06/10 00:06:54;;;;;;;0.93;0.20;;;;;;;;;;6249920;28;20296;-72
2022/06/10 00:09:56;;;;;;;1.92;0.40;;;;;;;;;;6248961;28;20112;-72
2022/06/10 00:12:57;;;;;;;2.17;0.30;;;;;;;;;;6253427;28;20116;-72
2022/06/10 00:15:59;;;;;;;1.50;0.30;;;;;;;;;;6248601;28;20104;-73
2022/06/10 00:19:01;;;;;;;1.88;0.40;;;;;;;;;;6248856;28;20060;-73
2022/06/10 00:22:05;;;;;;;1.30;0.50;;;;;;;;;;6251527;28;20095;-73
2022/06/10 00:25:06;;;;;;;;;;;;;;;;;;6246976;28;20101;-72
2022/06/10 00:28:09;;;;;;;2.88;0.30;;;;;;;;;;6244214;28;20144;-73
2022/06/10 00:31:11;;;;;;;2.75;0.40;;;;;;;;;;6251195;28;20053;-72
2022/06/10 00:34:12;;;;;;;0.90;0.40;;;;;;;;;;6249593;28;20064;-73
2022/06/10 00:37:16;;;;;;;3.30;0.30;;;;;;;;;;6244926;28;20115;-73
2022/06/10 00:40:20;;;;;;;0.20;0.20;;;;;;;;;;6246287;28;20081;-73
2022/06/10 00:43:28;;;;;;;0.73;0.25;;;;;;;;;;6249753;28;20057;-71
2022/06/10 00:46:32;;;;;;;1.80;0.30;;;;;;;;;;6256649;28;20105;-73
2022/06/10 00:49:33;;;;;;;2.95;0.40;;;;;;;;;;6253537;28;20061;-72
2022/06/10 00:52:39;;;;;;;1.10;0.40;;;;;;;;;;6249880;28;20424;-72
2022/06/10 00:55:42;;;;;;;0.82;0.30;;;;;;;;;;6254054;28;20064;-73
2022/06/10 00:58:47;;;;;;;0.38;0.30;;;;;;;;;;6251193;28;20065;-72
2022/06/10 01:01:52;;;;;;;1.52;0.40;;;;;;;;;;6250894;28;20344;-73
2022/06/10 01:04:55;;;;;;;0.75;0.30;;;;;;;;;;6254464;28;20057;-73
2022/06/10 01:08:02;;;;;;;0.55;0.30;;;;;;;;;;6252981;28;20041;-72
2022/06/10 01:11:14;;;;;;;2.40;0.50;;;;;;;;;;6253707;28;20053;-74
2022/06/10 01:14:29;;;;;;;1.10;0.40;;;;;;;;;;6252149;28;20053;-77
2022/06/10 01:17:39;;;;;;;2.65;0.63;;;;;;;;;;6245817;28;20104;-75
2022/06/10 01:20:49;;;;;;;0.77;0.52;;;;;;;;;;6250953;28;20280;-76
2022/06/10 01:24:18;;;;;;;2.05;0.40;;;;;;;;;;6251998;28;20341;-77
2022/06/10 01:27:58;;;;;;;0.90;0.40;;;;;;;;;;6248917;28;20083;-77
2022/06/10 01:31:09;;;;;;;1.00;0.43;;;;;;;;;;6251743;28;20038;-76
2022/06/10 01:34:20;;;;;;;1.90;0.50;;;;;;;;;;6250981;28;20058;-76
2022/06/10 01:37:27;;;;;;;1.98;0.30;;;;;;;;;;6246715;28;20045;-76
2022/06/10 01:40:35;;;;;;;1.65;0.20;;;;;;;;;;6247692;28;20122;-76
2022/06/10 01:43:41;;;;;;;2.05;0.40;;;;;;;;;;6247195;28;20053;-74
2022/06/10 01:46:49;;;;;;;1.02;0.30;;;;;;;;;;6248950;28;20052;-75
2022/06/10 01:49:56;;;;;;;0.30;0.25;;;;;;;;;;6246532;28;20049;-76
2022/06/10 01:53:00;;;;;;;1.48;0.40;;;;;;;;;;6242104;28;20073;-76
2022/06/10 01:56:05;;;;;;;2.80;0.57;;;;;;;;;;6246685;28;20116;-75
2022/06/10 01:59:10;;;;;;;1.17;0.38;;;;;;;;;;6243234;28;20063;-76
2022/06/10 02:02:16;;;;;;;3.17;0.30;;;;;;;;;;6247368;28;20046;-74
2022/06/10 02:05:21;;;;;;;2.10;0.30;;;;;;;;;;6249317;28;20216;-75
2022/06/10 02:08:27;;;;;;;1.27;0.30;;;;;;;;;;6244974;28;20053;-76
2022/06/10 02:11:29;;;;;;;2.03;0.32;;;;;;;;;;6250785;28;20387;-75
2022/06/10 02:14:37;;;;;;;1.90;0.50;;;;;;;;;;6247591;28;20337;-75
2022/06/10 02:17:43;;;;;;;1.77;0.40;;;;;;;;;;6245332;28;20065;-76
2022/06/10 02:20:50;;;;;;;1.95;0.30;;;;;;;;;;6249797;28;20057;-76
2022/06/10 02:23:56;;;;;;;1.45;0.35;;;;;;;;;;6249265;28;20045;-76
2022/06/10 02:27:01;;;;;;;0.65;0.30;;;;;;;;;;6247213;28;20041;-76
2022/06/10 02:30:06;;;;;;;0.77;0.30;;;;;;;;;;6252732;28;20274;-76
2022/06/10 02:33:10;;;;;;;4.50;0.30;;;;;;;;;;6250754;28;20214;-77
2022/06/10 02:36:13;;;;;;;;;;;;;;;;;;6251605;28;20057;-76
2022/06/10 02:39:20;;;;;;;1.27;0.30;;;;;;;;;;6249791;28;19917;-76
2022/06/10 02:42:28;;;;;;;0.55;0.30;;;;;;;;;;6246846;28;20040;-77
2022/06/10 02:45:33;;;;;;;0.30;0.30;;;;;;;;;;6249764;28;20951;-76
2022/06/10 02:48:43;;;;;;;0.52;0.35;;;;;;;;;;6248940;28;20053;-76
2022/06/10 02:51:45;;;;;;;1.30;0.40;;;;;;;;;;6248040;28;20068;-77
2022/06/10 02:54:47;;;;;;;1.75;0.30;;;;;;;;;;6248281;28;20049;-75
2022/06/10 03:01:16;;;;;;;0.80;0.40;;;;;;;;;;6251686;28;20320;-76
2022/06/10 03:04:25;;;;;;;1.25;0.70;;;;;;;;;;6248242;28;21960;-75
2022/06/10 03:07:43;;;;;;;1.20;0.40;;;;;;;;;;6248946;28;20071;-78
2022/06/10 03:10:51;;;;;;;0.45;0.40;;;;;;;;;;6247479;28;20120;-77
2022/06/10 03:14:02;;;;;;;1.98;0.60;;;;;;;;;;6249425;28;20046;-77
2022/06/10 03:17:11;;;;;;;3.13;0.30;;;;;;;;;;6247868;28;20038;-75
2022/06/10 03:20:19;;;;;;;0.60;0.30;;;;;;;;;;6248145;28;20056;-78
2022/06/10 03:23:24;;;;;;;1.60;0.30;;;;;;;;;;6245107;28;20345;-77
2022/06/10 03:26:29;;;;;;;1.80;0.40;;;;;;;;;;6248742;28;20060;-77
2022/06/10 03:29:36;;;;;;;4.30;0.60;;;;;;;;;;6250121;28;20061;-78
2022/06/10 03:32:41;;;;;;;2.05;0.50;;;;;;;;;;6246683;28;20337;-77
2022/06/10 03:35:46;;;;;;;0.32;0.25;;;;;;;;;;6250076;28;20312;-76
2022/06/10 03:38:50;;;;;;;3.95;0.50;;;;;;;;;;6247617;28;20332;-78
2022/06/10 03:41:58;;;;;;;1.63;0.32;;;;;;;;;;6248693;28;20435;-77
2022/06/10 03:45:00;;;;;;;2.00;0.40;;;;;;;;;;6250236;28;20041;-78
2022/06/10 03:48:02;;;;;;;1.75;0.30;;;;;;;;;;6246819;28;20121;-77
2022/06/10 03:51:06;;;;;;;1.92;0.38;;;;;;;;;;6245854;28;20065;-77
2022/06/10 03:54:08;;;;;;;0.75;0.43;;;;;;;;;;6247842;28;20069;-78
2022/06/10 03:57:10;;;;;;;3.10;0.35;;;;;;;;;;6246259;28;20057;-77
2022/06/10 04:00:15;;;;;;;1.80;0.45;;;;;;;;;;6250884;28;20399;-76
2022/06/10 04:03:17;;;;;;;4.68;0.43;;;;;;;;;;6250892;28;20053;-77
2022/06/10 04:06:20;;;;;;;2.95;0.90;;;;;;;;;;6249123;28;20061;-77
2022/06/10 04:09:22;;;;;;;1.75;0.40;;;;;;;;;;6250944;28;20065;-75
2022/06/10 04:12:25;;;;;;;5.30;0.60;;;;;;;;;;6251358;28;20108;-78
2022/06/10 04:15:27;;;;;;;0.57;0.30;;;;;;;;;;6251472;28;20061;-77
2022/06/10 04:18:29;;;;;;;2.13;0.52;;;;;;;;;;6253080;28;20065;-78
2022/06/10 04:21:32;;;;;;;2.05;0.50;;;;;;;;;;6255650;28;20057;-76
2022/06/10 04:24:34;;;;;;;8.48;0.70;;;;;;;;;;6252228;28;20061;-78
2022/06/10 04:27:36;;;;;;;1.30;0.60;;;;;;;;;;6256309;28;20045;-78
2022/06/10 04:30:40;;;;;;;3.92;0.57;;;;;;;;;;6253231;28;20076;-76
2022/06/10 04:33:42;;;;;;;4.20;0.43;;;;;;;;;;6252999;28;20053;-81
2022/06/10 04:36:45;;;;;;;2.15;0.52;;;;;;;;;;6253311;28;20395;-80
2022/06/10 04:39:47;;;;;;;2.17;0.70;;;;;;;;;;6255682;28;20061;-80
2022/06/10 04:42:49;;;;;;;1.27;0.50;;;;;;;;;;6251360;28;20046;-81
2022/06/10 04:45:54;;;;;;;2.35;0.70;;;;;;;;;;6251792;28;20331;-80
2022/06/10 04:48:57;;;;;;;3.42;0.60;;;;;;;;;;6253623;28;20048;-80
2022/06/10 04:52:00;;;;;;;3.35;0.70;;;;;;;;;;6255532;28;20056;-81
2022/06/10 04:55:01;;;;;;;1.20;0.60;;;;;;;;;;6249959;28;20072;-81
2022/06/10 04:58:04;;;;;;;2.47;0.55;;;;;;;;;;6252234;28;20045;-81
2022/06/10 05:01:05;;;;;;;1.77;0.63;;;;;;;;;;6251183;28;20264;-81
2022/06/10 05:04:07;;;;;;;5.55;0.70;;;;;;;;;;6251290;28;20045;-81
2022/06/10 05:07:11;;;;;;;1.10;0.52;;;;;;;;;;6254968;28;20088;-81
2022/06/10 05:10:14;;;;;;;2.72;0.50;;;;;;;;;;6254206;28;20364;-80
2022/06/10 05:13:16;;;;;;;4.85;0.60;;;;;;;;;;6254271;28;20063;-81
2022/06/10 05:16:18;;;;;;;3.53;0.50;;;;;;;;;;6258280;28;20061;-81
2022/06/10 05:19:20;;;;;;;1.20;0.50;;;;;;;;;;6254841;28;20081;-80
2022/06/10 05:22:23;;;;;;;1.80;0.73;;;;;;;;;;6251948;28;20391;-82
2022/06/10 05:25:25;;;;;;;3.85;1.15;;;;;;;;;;6251173;28;20081;-81
2022/06/10 05:28:27;;;;;;;3.55;0.95;;;;;;;;;;6252995;28;20057;-82
2022/06/10 05:31:29;;;;;;;2.47;0.60;;;;;;;;;;6250731;28;20057;-82
2022/06/10 05:34:46;;;;;;;1.23;0.50;;;;;;;;;;6251717;28;20122;-78
2022/06/10 05:37:49;;;;;;;1.63;0.82;;;;;;;;;;6253811;28;20096;-77
2022/06/10 05:40:51;;;;;;;2.95;0.40;;;;;;;;;;6248449;28;20080;-75
2022/06/10 05:43:53;;;;;;;4.20;0.73;;;;;;;;;;6250878;28;20053;-76
2022/06/10 05:46:55;;;;;;;0.95;0.50;;;;;;;;;;6252436;28;20779;-79
2022/06/10 05:49:59;;;;;;;3.60;0.95;;;;;;;;;;6250994;28;20060;-79
2022/06/10 05:53:03;;;;;;;3.38;0.57;;;;;;;;;;6248699;28;20080;-78
2022/06/10 05:56:05;;;;;;;4.45;0.70;;;;;;;;;;6248081;28;20344;-78
2022/06/10 05:59:06;;;;;;;1.58;0.57;;;;;;;;;;6251815;28;20099;-80
2022/06/10 06:02:11;;;;;;;1.60;0.57;;;;;;;;;;6250687;28;20064;-80
2022/06/10 06:05:13;;;;;;;0.90;0.30;;;;;;;;;;6251713;28;20367;-82
2022/06/10 06:08:16;;;;;;;5.13;1.02;;;;;;;;;;6254707;28;20041;-81
2022/06/10 06:11:18;;;;;;;1.70;0.50;;;;;;;;;;6250443;28;20337;-81
2022/06/10 06:14:20;;;;;;;1.50;0.55;;;;;;;;;;6251290;28;20045;-81
2022/06/10 06:17:22;;;;;;;1.95;0.60;;;;;;;;;;6251555;28;20261;-82
2022/06/10 06:20:24;;;;;;;2.22;0.50;;;;;;;;;;6250975;28;20053;-81
2022/06/10 06:23:28;;;;;;;1.75;0.43;;;;;;;;;;6250942;28;20235;-81
2022/06/10 06:26:30;;;;;;;2.03;0.38;;;;;;;;;;6248799;28;20049;-80
2022/06/10 06:29:31;;;;;;;2.22;0.52;;;;;;;;;;6253300;28;20049;-83
2022/06/10 06:32:33;;;;;;;6.70;1.00;;;;;;;;;;6252712;28;20060;-82
2022/06/10 06:35:37;;;;;;;4.60;0.60;;;;;;;;;;6250637;28;20061;-81
2022/06/10 06:38:41;;;;;;;3.60;0.73;;;;;;;;;;6244799;28;20052;-80
2022/06/10 06:41:42;;;;;;;3.38;0.50;;;;;;;;;;6245481;28;20121;-79
2022/06/10 06:44:44;;;;;;;4.85;0.80;;;;;;;;;;6252039;28;20391;-80
2022/06/10 06:47:46;;;;;;;3.83;0.55;;;;;;;;;;6250568;28;20333;-80
2022/06/10 06:50:50;;;;;;;3.13;0.60;;;;;;;;;;6251448;28;20329;-81
2022/06/10 06:53:53;;;;;;;2.65;0.80;;;;;;;;;;6250307;28;20069;-79
2022/06/10 06:56:55;;;;;;;2.92;0.70;;;;;;;;;;6247215;28;20083;-81
2022/06/10 07:00:05;;;;;;;1.90;0.40;;;;;;;;;;6249796;28;20088;-81
2022/06/10 07:03:07;;;;;;;3.35;0.70;;;;;;;;;;6246656;28;20049;-82
2022/06/10 07:06:09;;;;;;;2.17;0.63;;;;;;;;;;6248720;28;20091;-81
2022/06/10 07:09:13;;;;;;;3.67;0.60;;;;;;;;;;6250414;28;20323;-81
2022/06/10 07:12:14;;;;;;;2.55;0.75;;;;;;;;;;6249429;28;20075;-84
2022/06/10 07:15:16;;;;;;;4.95;0.82;;;;;;;;;;6248314;28;20049;-78
2022/06/10 07:18:18;;;;;;;1.58;0.68;;;;;;;;;;6254734;28;20135;-83
2022/06/10 07:21:20;;;;;;;2.97;0.60;;;;;;;;;;6247820;28;20037;-82
2022/06/10 07:24:23;;;;;;;2.20;0.50;;;;;;;;;;6249956;28;20046;-82
2022/06/10 07:27:25;;;;;;;3.17;0.50;;;;;;;;;;6245559;28;20237;-83
2022/06/10 07:30:30;;;;;;;2.97;0.50;;;;;;;;;;6251689;28;20052;-82
2022/06/10 07:33:34;;;;;;;1.85;0.60;;;;;;;;;;6249934;28;20155;-81
2022/06/10 07:36:36;;;;;;;0.98;0.47;;;;;;;;;;6250720;28;20439;-81
2022/06/10 07:39:39;;;;;;;1.92;0.63;;;;;;;;;;6251151;28;20252;-82
2022/06/10 07:42:41;;;;;;;1.33;0.38;;;;;;;;;;6248382;28;20338;-81
2022/06/10 07:45:42;;;;;;;0.43;0.30;;;;;;;;;;6249637;28;20049;-81
2022/06/10 07:48:45;;;;;;;2.58;0.50;;;;;;;;;;6245682;28;20050;-82
2022/06/10 07:51:47;;;;;;;2.00;0.67;;;;;;;;;;6252207;28;20046;-82
2022/06/10 07:54:50;;;;;;;1.70;0.50;;;;;;;;;;6247904;28;20042;-81
2022/06/10 07:57:52;;;;;;;2.17;0.40;;;;;;;;;;6251558;28;20088;-82
2022/06/10 08:00:54;;;;;;;2.63;0.85;;;;;;;;;;6251832;28;20087;-82
2022/06/10 08:03:56;;;;;;;2.33;0.50;;;;;;;;;;6258163;28;20051;-81
2022/06/10 08:06:58;;;;;;;1.92;0.40;;;;;;;;;;6251277;28;20056;-81
2022/06/10 08:10:01;;;;;;;1.27;0.50;;;;;;;;;;6253428;28;20065;-81
2022/06/10 08:13:02;;;;;;;;;;;;;;;;;;6253898;28;20092;-80
2022/06/10 08:16:04;;;;;;;5.75;0.80;;;;;;;;;;6259258;28;19925;-81
2022/06/10 08:19:06;;;;;;;2.63;0.68;;;;;;;;;;6255053;28;20053;-81
2022/06/10 08:25:28;;;;;;;3.08;0.40;;;;;;;;;;6251447;28;20185;-81
2022/06/10 08:28:30;;;;;;;1.23;0.80;;;;;;;;;;6254657;28;20256;-80
2022/06/10 08:31:32;;;;;;;1.25;0.40;;;;;;;;;;6253429;28;20049;-81
2022/06/10 08:34:33;;;;;;;3.60;0.50;;;;;;;;;;6257352;28;20045;-82
2022/06/10 08:37:35;;;;;;;1.23;0.45;;;;;;;;;;6257156;28;20340;-81
2022/06/10 08:40:44;;;;;;;2.42;0.40;;;;;;;;;;6254249;28;20328;-82
2022/06/10 08:43:54;;;;;;;3.47;0.40;;;;;;;;;;6248707;28;20053;-81
2022/06/10 08:47:37;;;;;;;1.45;0.40;;;;;;;;;;6251688;28;20045;-81
2022/06/10 08:50:50;;;;;;;732.03;62.28;;;;;;;;;;6154467;28;20047;-79
2022/06/10 08:54:01;;;;;;;20.67;2.47;;;;;;;;;;6150045;28;20051;-76
2022/06/10 08:57:07;;;;;;;14.90;1.65;;;;;;;;;;6153609;28;20059;-74
2022/06/10 09:00:16;;;;;;;3.80;0.65;;;;;;;;;;6155815;28;20051;-75
2022/06/10 09:03:22;;;;;;;5.15;1.13;;;;;;;;;;6153412;28;20063;-79
2022/06/10 09:06:30;;;;;;;4.13;0.50;;;;;;;;;;6154765;28;20402;-78
2022/06/10 09:09:33;;;;;;;2.70;0.50;;;;;;;;;;6155756;28;20055;-74
2022/06/10 09:12:45;;;;;;;6.28;0.98;;;;;;;;;;6154660;28;20441;-79
2022/06/10 09:15:49;;;;;;;;;;;;;;;;;;6155987;28;20051;-81
2022/06/10 09:19:00;;;;;;;20.33;1.55;;;;;;;;;;6152668;28;20237;-79
2022/06/10 09:22:06;;;;;;;3.28;0.60;;;;;;;;;;6153481;28;20047;-78
2022/06/10 09:25:11;;;;;;;14.60;1.08;;;;;;;;;;6179826;28;20305;-82
2022/06/10 09:28:14;;;;;;;5.90;0.68;;;;;;;;;;6250320;28;20253;-83
2022/06/10 09:31:24;;;;;;;1.48;0.55;;;;;;;;;;6252483;28;20107;-84
2022/06/10 09:34:37;;;;;;;3.28;0.60;;;;;;;;;;6250151;28;20310;-86
2022/06/10 09:37:45;;;;;;;6.88;0.52;;;;;;;;;;6252204;28;20348;-84
2022/06/10 09:40:53;;;;;;;0.63;0.40;;;;;;;;;;6251072;28;20101;-84
2022/06/10 09:44:03;;;;;;;2.40;0.77;;;;;;;;;;6250226;28;20210;-87
2022/06/10 09:47:14;;;;;;;1.30;0.60;;;;;;;;;;6252993;28;20198;-87
2022/06/10 09:50:22;;;;;;;1.85;0.63;;;;;;;;;;6251748;28;20245;-86
2022/06/10 09:53:33;;;;;;;1.15;0.52;;;;;;;;;;6250534;28;20049;-87
2022/06/10 09:56:55;;;;;;;3.03;1.00;;;;;;;;;;6253939;28;20050;-87
2022/06/10 10:00:02;;;;;;;0.57;0.40;;;;;;;;;;6250410;28;20056;-87
2022/06/10 10:03:15;;;;;;;1.70;0.50;;;;;;;;;;6250818;28;20058;-87
2022/06/10 10:06:28;;;;;;;1.35;0.50;;;;;;;;;;6250138;28;20115;-86
2022/06/10 10:09:40;;;;;;;2.08;0.47;;;;;;;;;;6249800;28;20042;-84
2022/06/10 10:12:47;;;;;;;0.70;0.45;;;;;;;;;;6250448;28;20111;-84
2022/06/10 10:15:56;;;;;;;2.13;0.80;;;;;;;;;;6248864;28;20112;-87
2022/06/10 10:19:20;;;;;;;1.13;0.80;;;;;;;;;;6250083;28;20099;-87
2022/06/10 10:22:38;;;;;;;1.63;0.68;;;;;;;;;;6248413;28;20049;-87
2022/06/10 10:25:41;;;;;;;1.35;0.65;;;;;;;;;;6251881;28;20103;-86
2022/06/10 10:28:45;;;;;;;2.47;0.73;;;;;;;;;;6249968;28;20057;-86
2022/06/10 10:31:53;;;;;;;1.83;0.55;;;;;;;;;;6251455;28;20049;-84
2022/06/10 10:35:03;;;;;;;1.58;0.70;;;;;;;;;;6248927;28;20045;-86
2022/06/10 10:38:07;;;;;;;2.72;0.77;;;;;;;;;;6252101;28;20220;-87
2022/06/10 10:41:15;;;;;;;3.88;0.70;;;;;;;;;;6250605;28;20341;-86
2022/06/10 10:44:38;;;;;;;5.60;0.60;;;;;;;;;;6253013;28;20053;-85
2022/06/10 10:47:48;;;;;;;0.60;0.60;;;;;;;;;;6251458;28;20083;-86
2022/06/10 10:50:56;;;;;;;1.65;0.57;;;;;;;;;;6247044;28;20303;-87
2022/06/10 10:54:03;;;;;;;2.33;0.50;;;;;;;;;;6248700;28;20064;-87
2022/06/10 10:57:15;;;;;;;6.80;0.98;;;;;;;;;;6251478;28;20091;-87
2022/06/10 11:00:32;;;;;;;4.63;0.80;;;;;;;;;;6253626;28;20053;-86
2022/06/10 11:03:37;;;;;;;2.72;0.70;;;;;;;;;;6249219;28;20041;-84
2022/06/10 11:06:39;;;;;;;3.55;0.77;;;;;;;;;;6250231;28;20049;-86
2022/06/10 11:09:42;;;;;;;;;;;;;;;;;;6243842;28;20065;-85
2022/06/10 11:12:44;;;;;;;1.17;0.60;;;;;;;;;;6242894;28;19935;-86
2022/06/10 11:15:48;;;;;;;1.25;0.70;;;;;;;;;;6245012;28;20053;-81
2022/06/10 11:18:52;;;;;;;2.20;0.77;;;;;;;;;;6244786;28;20053;-78
2022/06/10 11:22:10;;;;;;;6.70;0.85;;;;;;;;;;6244087;28;20065;-77
2022/06/10 11:25:22;;;;;;;1.85;0.90;;;;;;;;;;6247077;28;21176;-80
2022/06/10 11:28:24;;;;;;;;;;;;;;;;;;6245134;28;20065;-79
2022/06/10 11:31:28;;;;;;;3.30;1.02;;;;;;;;;;6245089;28;20998;-77
2022/06/10 11:34:36;;;;;;;1.13;0.70;;;;;;;;;;6242123;28;20268;-76
2022/06/10 11:37:40;;;;;;;4.45;0.60;;;;;;;;;;6243657;28;20046;-77
2022/06/10 11:40:43;;;;;;;1.83;0.80;;;;;;;;;;6240512;28;20049;-78
2022/06/10 11:43:49;;;;;;;2.90;0.65;;;;;;;;;;6241349;28;20060;-80
2022/06/10 11:46:58;;;;;;;1.00;0.57;;;;;;;;;;6237126;28;20058;-77
2022/06/10 11:50:03;;;;;;;3.15;0.85;;;;;;;;;;6241472;28;20095;-80
2022/06/10 11:53:08;;;;;;;2.00;0.93;;;;;;;;;;6241876;28;20065;-78
2022/06/10 11:59:49;;;;;;;9.93;1.05;;;;;;;;;;6246467;28;20049;-78
2022/06/10 12:02:59;;;;;;;1.73;0.65;;;;;;;;;;6240976;28;20057;-78
2022/06/10 12:06:06;;;;;;;1.90;0.80;;;;;;;;;;6240970;28;20056;-83
2022/06/10 12:09:15;;;;;;;1.00;0.70;;;;;;;;;;6241475;28;20061;-81
2022/06/10 12:12:20;;;;;;;3.17;0.70;;;;;;;;;;6238808;28;20060;-81
2022/06/10 12:15:25;;;;;;;1.75;0.82;;;;;;;;;;6240680;28;20053;-80
2022/06/10 12:18:31;;;;;;;2.60;0.63;;;;;;;;;;6244585;28;20147;-80
2022/06/10 12:21:34;;;;;;;3.60;0.73;;;;;;;;;;6242430;28;20053;-79
2022/06/10 12:24:36;;;;;;;1.10;0.73;;;;;;;;;;6239580;28;20059;-80
2022/06/10 12:27:43;;;;;;;1.73;0.90;;;;;;;;;;6236585;28;20241;-80
2022/06/10 12:30:48;;;;;;;1.65;0.90;;;;;;;;;;6223266;28;20726;-82
2022/06/10 12:33:53;;;;;;;3.20;0.80;;;;;;;;;;6232356;28;20080;-81
2022/06/10 12:37:00;;;;;;;1.55;0.80;;;;;;;;;;6238602;28;20218;-81
2022/06/10 12:40:06;;;;;;;4.97;0.90;;;;;;;;;;6238496;28;20068;-81
2022/06/10 12:43:14;;;;;;;1.20;0.70;;;;;;;;;;6240575;28;20111;-81
2022/06/10 12:46:32;;;;;;;1.88;0.90;;;;;;;;;;6239716;28;20208;-81
2022/06/10 12:49:37;;;;;;;2.35;0.70;;;;;;;;;;6244351;28;20054;-81
2022/06/10 12:52:52;;;;;;;1.77;0.68;;;;;;;;;;6242365;28;20336;-83
2022/06/10 12:55:56;;;;;;;2.55;0.60;;;;;;;;;;6243620;28;20051;-79
2022/06/10 12:59:23;;;;;;;3.25;0.75;;;;;;;;;;6241545;28;20045;-81
2022/06/10 13:02:34;;;;;;;3.55;0.85;;;;;;;;;;6232569;28;20116;-80
2022/06/10 13:05:44;;;;;;;1.00;0.60;;;;;;;;;;6247880;28;20064;-79
2022/06/10 13:08:54;;;;;;;3.20;0.70;;;;;;;;;;6248680;28;20077;-79
2022/06/10 13:11:56;;;;;;;2.83;0.60;;;;;;;;;;6247893;28;20061;-80
2022/06/10 13:15:16;;;;;;;4.78;1.10;;;;;;;;;;6251082;28;20134;-79
2022/06/10 13:18:29;;;;;;;1.73;0.60;;;;;;;;;;6253347;28;20053;-79
2022/06/10 13:21:32;;;;;;;2.45;0.60;;;;;;;;;;6251462;28;20053;-80
2022/06/10 13:24:35;;;;;;;3.08;0.60;;;;;;;;;;6252315;28;20305;-79
2022/06/10 13:27:42;;;;;;;2.22;0.60;;;;;;;;;;6253437;28;20232;-80
2022/06/10 13:30:44;;;;;;;3.97;0.65;;;;;;;;;;6251762;28;20085;-79
2022/06/10 13:33:57;;;;;;;2.08;0.50;;;;;;;;;;6253075;28;20325;-80
2022/06/10 13:37:01;;;;;;;4.05;0.90;;;;;;;;;;6252045;28;20051;-80
2022/06/10 13:40:07;;;;;;;1.65;0.60;;;;;;;;;;6253381;28;20060;-79
2022/06/10 13:43:18;;;;;;;0.93;0.60;;;;;;;;;;6250845;28;20344;-80
2022/06/10 13:46:24;;;;;;;2.92;0.60;;;;;;;;;;6252024;28;20045;-79
2022/06/10 13:49:45;;;;;;;0.80;0.50;;;;;;;;;;6252625;28;20058;-79
2022/06/10 13:52:53;;;;;;;0.50;0.50;;;;;;;;;;6246992;28;20049;-79
2022/06/10 13:56:00;;;;;;;3.95;0.80;;;;;;;;;;6252688;28;20085;-79
2022/06/10 13:59:02;;;;;;;5.35;0.80;;;;;;;;;;6248001;28;20080;-80
2022/06/10 14:02:13;;;;;;;;;;;;;;;;;;6253286;28;20049;-78
2022/06/10 14:05:20;;;;;;;1.17;0.65;;;;;;;;;;6245956;28;19924;-80
2022/06/10 14:08:22;;;;;;;0.70;0.70;;;;;;;;;;6253315;28;20056;-79
2022/06/10 14:11:30;;;;;;;0.95;0.50;;;;;;;;;;6248047;28;20059;-79
2022/06/10 14:14:34;;;;;;;4.50;0.70;;;;;;;;;;6247919;28;20163;-80
2022/06/10 14:17:36;;;;;;;1.15;0.50;;;;;;;;;;6252252;28;20057;-80
2022/06/10 14:20:38;;;;;;;0.98;0.60;;;;;;;;;;6246445;28;20069;-77
2022/06/10 14:24:03;;;;;;;3.88;0.52;;;;;;;;;;6244204;28;20321;-77
2022/06/10 14:27:23;;;;;;;1.85;0.55;;;;;;;;;;6242386;28;20559;-78
2022/06/10 14:30:32;;;;;;;0.47;0.40;;;;;;;;;;6243274;28;20099;-76
2022/06/10 14:33:37;;;;;;;1.75;0.60;;;;;;;;;;6247735;28;20071;-78
2022/06/10 14:36:50;;;;;;;1.10;0.50;;;;;;;;;;6242524;28;20116;-75
2022/06/10 14:40:04;;;;;;;2.72;0.57;;;;;;;;;;6236668;28;20053;-77
2022/06/10 14:43:17;;;;;;;2.13;0.50;;;;;;;;;;6242136;28;20046;-77
2022/06/10 14:46:21;;;;;;;0.63;0.40;;;;;;;;;;6240739;28;20058;-77
2022/06/10 14:49:27;;;;;;;4.05;0.50;;;;;;;;;;6238020;28;20133;-77
2022/06/10 14:52:41;;;;;;;1.67;0.30;;;;;;;;;;6244433;28;20053;-77
2022/06/10 14:55:46;;;;;;;5.40;0.65;;;;;;;;;;6246490;28;20068;-78
2022/06/10 14:58:49;;;;;;;0.40;0.38;;;;;;;;;;6251947;28;20056;-77
2022/06/10 15:01:51;;;;;;;1.33;0.47;;;;;;;;;;6248301;28;20103;-78
2022/06/10 15:08:14;;;;;;;2.92;0.43;;;;;;;;;;6246215;28;20271;-78
2022/06/10 15:11:17;;;;;;;1.40;0.50;;;;;;;;;;6245867;28;20058;-80
2022/06/10 15:14:20;;;;;;;0.82;0.30;;;;;;;;;;6246670;28;20071;-77
2022/06/10 15:17:28;;;;;;;0.30;0.30;;;;;;;;;;6242662;28;21392;-75
2022/06/10 15:20:30;;;;;;;2.45;0.40;;;;;;;;;;6243254;28;20057;-78
2022/06/10 15:23:32;;;;;;;1.90;0.40;;;;;;;;;;6239808;28;20345;-78
2022/06/10 15:26:39;;;;;;;2.70;0.47;;;;;;;;;;6240994;28;20115;-77
2022/06/10 15:29:42;;;;;;;2.83;0.43;;;;;;;;;;6241511;28;20060;-79
2022/06/10 15:32:44;;;;;;;2.20;0.60;;;;;;;;;;6241326;28;20060;-79
2022/06/10 15:42:51;;;;;;;0.85;0.38;;;;;;;;;;6248248;28;20053;-74
2022/06/10 15:45:54;;;;;;;1.50;0.52;;;;;;;;;;6245441;28;20064;-78
2022/06/10 15:48:55;;;;;;;2.50;0.43;;;;;;;;;;6243780;28;20050;-77
2022/06/10 15:52:00;;;;;;;3.00;0.47;;;;;;;;;;6241671;28;20056;-80
2022/06/10 15:58:27;;;;;;;3.45;0.52;;;;;;;;;;6241128;28;20049;-79
2022/06/10 16:01:30;;;;;;;1.83;0.30;;;;;;;;;;6240990;28;20050;-77
2022/06/10 16:04:32;;;;;;;0.90;0.45;;;;;;;;;;6245446;28;20128;-78
2022/06/10 16:07:34;;;;;;;1.02;0.40;;;;;;;;;;6249986;28;20041;-80
2022/06/10 16:10:37;;;;;;;2.03;0.40;;;;;;;;;;6249421;28;20347;-76
2022/06/10 16:13:39;;;;;;;;;;;;;;;;;;6251117;28;20056;-77
2022/06/10 16:16:43;;;;;;;1.02;0.50;;;;;;;;;;6255171;28;19931;-79
2022/06/10 16:19:45;;;;;;;1.08;0.77;;;;;;;;;;6248898;28;20237;-80
2022/06/10 16:22:47;;;;;;;0.65;0.40;;;;;;;;;;6251505;28;20049;-79
2022/06/10 16:25:51;;;;;;;3.45;0.70;;;;;;;;;;6253157;28;20061;-79
2022/06/10 16:28:55;;;;;;;0.90;0.50;;;;;;;;;;6250901;28;20170;-76
2022/06/10 16:31:59;;;;;;;1.88;0.40;;;;;;;;;;6250298;28;20080;-79
2022/06/10 16:35:01;;;;;;;1.08;0.38;;;;;;;;;;6253859;28;20041;-80
2022/06/10 16:38:02;;;;;;;0.50;0.40;;;;;;;;;;6254926;28;20288;-76
2022/06/10 16:41:07;;;;;;;1.30;0.43;;;;;;;;;;6252086;28;20048;-76
2022/06/10 16:44:14;;;;;;;0.57;0.40;;;;;;;;;;6252784;28;20359;-78
2022/06/10 16:47:17;;;;;;;0.45;0.30;;;;;;;;;;6255534;28;20053;-78
2022/06/10 16:50:21;;;;;;;0.73;0.40;;;;;;;;;;6254913;28;20079;-77
2022/06/10 16:53:23;;;;;;;1.75;0.30;;;;;;;;;;6252349;28;20065;-79
2022/06/10 16:56:35;;;;;;;2.10;0.40;;;;;;;;;;6252718;28;20049;-78
2022/06/10 16:59:39;;;;;;;3.67;0.40;;;;;;;;;;6252878;28;20535;-77
2022/06/10 17:02:47;;;;;;;0.65;0.30;;;;;;;;;;6253122;28;20864;-78
2022/06/10 17:05:50;;;;;;;1.70;0.40;;;;;;;;;;6254138;28;20096;-78
2022/06/10 17:08:52;;;;;;;0.68;0.38;;;;;;;;;;6254494;28;20045;-77
2022/06/10 17:11:53;;;;;;;3.33;0.30;;;;;;;;;;6250149;28;20054;-78
2022/06/10 17:14:58;;;;;;;4.78;0.30;;;;;;;;;;6250013;28;20075;-78
2022/06/10 17:18:01;;;;;;;2.40;0.45;;;;;;;;;;6250569;28;20064;-77
2022/06/10 17:21:03;;;;;;;2.45;0.68;;;;;;;;;;6245350;28;20049;-76
2022/06/10 17:24:06;;;;;;;2.17;0.40;;;;;;;;;;6247770;28;20240;-78
2022/06/10 17:27:11;;;;;;;6.97;0.90;;;;;;;;;;6253680;28;20298;-77
2022/06/10 17:30:24;;;;;;;0.57;0.40;;;;;;;;;;6251820;28;20092;-77
2022/06/10 17:33:30;;;;;;;;;;;;;;;;;;6253130;28;20065;-78
2022/06/10 17:36:32;;;;;;;3.33;0.43;;;;;;;;;;6251438;28;19917;-78
2022/06/10 17:39:36;;;;;;;4.15;0.38;;;;;;;;;;6250252;28;20041;-79
2022/06/10 17:42:39;;;;;;;0.47;0.43;;;;;;;;;;6250097;28;20060;-78
2022/06/10 17:45:40;;;;;;;1.83;0.50;;;;;;;;;;6252686;28;20061;-79
2022/06/10 17:48:43;;;;;;;1.35;0.50;;;;;;;;;;6250904;28;20279;-78
2022/06/10 17:51:45;;;;;;;;;;;;;;;;;;6248519;28;20096;-78
2022/06/10 17:54:50;;;;;;;1.65;0.40;;;;;;;;;;6247816;28;19955;-78
2022/06/10 17:57:54;;;;;;;4.20;0.88;;;;;;;;;;6248728;28;20104;-80
2022/06/10 18:00:55;;;;;;;2.08;0.50;;;;;;;;;;6251414;28;20053;-77
2022/06/10 18:03:58;;;;;;;1.27;0.40;;;;;;;;;;6253195;28;20054;-76
2022/06/10 18:07:00;;;;;;;;;;;;;;;;;;6250035;28;20056;-76
2022/06/10 18:10:01;;;;;;;0.85;0.50;;;;;;;;;;6254204;28;19979;-80
2022/06/10 18:16:26;;;;;;;2.97;1.00;;;;;;;;;;6253211;28;20049;-78
2022/06/10 18:19:33;;;;;;;1.58;0.60;;;;;;;;;;6247315;28;20061;-76
2022/06/10 18:22:35;;;;;;;2.60;0.80;;;;;;;;;;6249909;28;20049;-78
2022/06/10 18:25:37;;;;;;;0.38;0.30;;;;;;;;;;6251464;28;20773;-78
2022/06/10 18:28:39;;;;;;;5.63;0.90;;;;;;;;;;6254601;28;20053;-77
2022/06/10 18:31:41;;;;;;;1.30;0.88;;;;;;;;;;6252264;28;20049;-79
2022/06/10 18:34:44;;;;;;;3.33;0.93;;;;;;;;;;6250817;28;20053;-78
2022/06/10 18:37:46;;;;;;;1.88;0.90;;;;;;;;;;6255044;28;20517;-78
2022/06/10 18:40:49;;;;;;;9.38;2.00;;;;;;;;;;6246400;28;20087;-78
2022/06/10 18:43:51;;;;;;;1.58;1.13;;;;;;;;;;6250205;28;20299;-77
2022/06/10 18:46:53;;;;;;;4.85;1.00;;;;;;;;;;6250654;28;20084;-78
2022/06/10 18:49:56;;;;;;;1.30;0.80;;;;;;;;;;6248702;28;20302;-77
2022/06/10 18:53:01;;;;;;;1.67;0.80;;;;;;;;;;6249432;28;20045;-76
2022/06/10 18:56:03;;;;;;;4.10;0.70;;;;;;;;;;6250781;28;20131;-77
2022/06/10 18:59:05;;;;;;;1.52;0.98;;;;;;;;;;6249002;28;21056;-77
2022/06/10 19:02:15;;;;;;;8.73;1.05;;;;;;;;;;6250644;28;20057;-76